createdAt,value
2022-10-03T00:02:01.952Z,8.87
2022-10-03T00:04:50.895Z,9.27
2022-10-03T00:07:52.793Z,10.50
2022-10-03T00:10:31.374Z,8.73
2022-10-03T00:13:05.537Z,3.20
2022-10-03T00:15:32.975Z,6.97
2022-10-03T00:18:35.835Z,7.97
2022-10-03T00:21:15.743Z,10.70
2022-10-03T00:23:42.929Z,7.67
2022-10-03T00:26:30.826Z,6.80
2022-10-03T00:28:58.474Z,5.43
2022-10-03T00:31:36.258Z,4.53
2022-10-03T00:34:21.118Z,6.43
2022-10-03T00:37:13.641Z,5.07
2022-10-03T00:39:56.372Z,3.27
2022-10-03T00:43:02.462Z,8.23
2022-10-03T00:45:29.915Z,5.97
2022-10-03T00:48:05.489Z,5.73
2022-10-03T00:51:04.083Z,5.83
2022-10-03T00:54:02.693Z,4.47
2022-10-03T00:57:02.101Z,4.60
2022-10-03T00:59:40.172Z,4.47
2022-10-03T01:02:32.858Z,4.50
2022-10-03T01:05:13.071Z,3.93
2022-10-03T01:07:59.054Z,4.23
2022-10-03T01:10:32.468Z,3.93
2022-10-03T01:13:18.581Z,4.70
2022-10-03T01:15:50.254Z,4.33
2022-10-03T01:18:14.889Z,4.37
2022-10-03T01:20:54.724Z,5.60
2022-10-03T01:23:31.429Z,4.80
2022-10-03T01:26:00.921Z,5.50
2022-10-03T01:28:59.499Z,6.03
2022-10-03T01:31:29.875Z,5.20
2022-10-03T01:34:22.933Z,6.60
2022-10-03T01:37:16.185Z,4.37
2022-10-03T01:39:58.564Z,4.33
2022-10-03T01:42:44.326Z,4.10
2022-10-03T01:45:27.071Z,3.63
2022-10-03T01:47:54.165Z,3.03
2022-10-03T01:50:34.948Z,3.63
2022-10-03T01:53:15.169Z,4.23
2022-10-03T01:55:51.845Z,6.87
2022-10-03T01:58:27.043Z,6.43
2022-10-03T02:01:07.919Z,4.60
2022-10-03T02:03:46.034Z,4.57
2022-10-03T02:06:08.712Z,3.60
2022-10-03T02:08:47.503Z,3.50
2022-10-03T02:11:11.131Z,3.50
2022-10-03T02:13:47.395Z,3.03
2022-10-03T02:16:08.969Z,3.27
2022-10-03T02:19:06.147Z,4.03
2022-10-03T02:21:32.151Z,3.27
2022-10-03T02:24:29.314Z,3.40
2022-10-03T02:27:09.716Z,2.90
2022-10-03T02:29:51.331Z,3.30
2022-10-03T02:32:31.988Z,3.20
2022-10-03T02:35:14.958Z,3.60
2022-10-03T02:40:51.064Z,3.10
2022-10-03T02:43:43.210Z,3.87
2022-10-03T02:46:19.037Z,3.03
2022-10-03T02:48:59.443Z,3.30
2022-10-03T02:51:58.317Z,3.90
2022-10-03T02:54:53.421Z,3.23
2022-10-03T02:57:17.787Z,3.10
2022-10-03T03:00:12.233Z,3.00
2022-10-03T03:03:11.059Z,3.17
2022-10-03T03:05:54.120Z,3.47
2022-10-03T03:08:43.219Z,3.27
2022-10-03T03:11:38.401Z,3.33
2022-10-03T03:14:34.732Z,3.27
2022-10-03T03:16:57.263Z,3.33
2022-10-03T03:19:54.239Z,2.70
2022-10-03T03:22:33.332Z,3.60
2022-10-03T03:25:25.568Z,3.37
2022-10-03T03:28:21.109Z,3.53
2022-10-03T03:31:05.250Z,3.10
2022-10-03T03:33:52.903Z,3.40
2022-10-03T03:36:27.040Z,3.27
2022-10-03T03:39:00.939Z,3.30
2022-10-03T03:41:36.175Z,3.63
2022-10-03T03:44:16.577Z,3.00
2022-10-03T03:47:08.941Z,3.43
2022-10-03T03:49:42.435Z,3.43
2022-10-03T03:52:22.360Z,2.63
2022-10-03T03:55:07.596Z,3.33
2022-10-03T03:57:45.487Z,2.70
2022-10-03T04:00:18.363Z,2.67
2022-10-03T04:02:57.725Z,3.57
2022-10-03T04:06:03.983Z,3.20
2022-10-03T04:08:28.494Z,2.97
2022-10-03T04:11:04.915Z,3.10
2022-10-03T04:13:52.584Z,2.33
2022-10-03T04:16:46.107Z,2.87
2022-10-03T04:19:28.286Z,3.00
2022-10-03T04:22:01.990Z,2.90
2022-10-03T04:24:23.475Z,2.83
2022-10-03T04:27:27.908Z,3.00
2022-10-03T04:30:09.066Z,2.80
2022-10-03T04:32:42.498Z,3.00
2022-10-03T04:35:24.771Z,2.57
2022-10-03T04:38:15.291Z,3.40
2022-10-03T04:41:03.017Z,3.00
2022-10-03T04:43:45.225Z,3.00
2022-10-03T04:46:28.013Z,3.00
2022-10-03T04:49:12.227Z,3.43
2022-10-03T04:51:55.362Z,5.03
2022-10-03T04:54:48.210Z,5.50
2022-10-03T04:57:17.587Z,4.43
2022-10-03T05:00:00.382Z,3.57
2022-10-03T05:02:36.879Z,3.03
2022-10-03T05:05:16.848Z,3.33
2022-10-03T05:08:16.195Z,3.73
2022-10-03T05:11:12.376Z,3.00
2022-10-03T05:13:47.198Z,3.03
2022-10-03T05:16:37.637Z,3.60
2022-10-03T05:19:25.823Z,3.20
2022-10-03T05:22:02.663Z,3.50
2022-10-03T05:24:37.222Z,8.47
2022-10-03T05:27:24.513Z,12.97
2022-10-03T05:30:02.059Z,16.30
2022-10-03T05:32:34.227Z,15.80
2022-10-03T05:35:21.515Z,6.13
2022-10-03T05:37:42.936Z,7.33
2022-10-03T05:40:18.913Z,7.63
2022-10-03T05:43:08.257Z,3.90
2022-10-03T05:45:49.104Z,3.77
2022-10-03T05:48:10.628Z,3.80
2022-10-03T05:50:59.951Z,4.23
2022-10-03T05:53:49.690Z,3.57
2022-10-03T05:56:43.120Z,3.50
2022-10-03T05:59:39.861Z,3.27
2022-10-03T06:02:20.017Z,3.70
2022-10-03T06:05:26.561Z,3.20
2022-10-03T06:08:20.025Z,3.40
2022-10-03T06:11:14.039Z,3.20
2022-10-03T06:13:53.815Z,3.10
2022-10-03T06:16:33.339Z,3.10
2022-10-03T06:19:16.804Z,3.83
2022-10-03T06:21:53.158Z,3.90
2022-10-03T06:24:35.894Z,3.40
2022-10-03T06:27:34.796Z,3.20
2022-10-03T06:30:16.383Z,3.30
2022-10-03T06:32:46.056Z,3.17
2022-10-03T06:35:30.319Z,5.00
2022-10-03T06:38:19.156Z,4.70
2022-10-03T06:40:58.491Z,8.40
2022-10-03T06:43:51.073Z,4.97
2022-10-03T06:46:42.308Z,4.07
2022-10-03T06:49:19.116Z,3.77
2022-10-03T06:51:53.626Z,4.00
2022-10-03T06:54:36.625Z,3.73
2022-10-03T06:57:27.660Z,3.33
2022-10-03T07:00:04.015Z,3.50
2022-10-03T07:02:47.840Z,2.90
2022-10-03T07:05:46.812Z,3.53
2022-10-03T07:08:36.282Z,2.53
2022-10-03T07:11:03.866Z,2.63
2022-10-03T07:13:40.415Z,3.33
2022-10-03T07:16:27.430Z,2.83
2022-10-03T07:18:49.154Z,2.77
2022-10-03T07:21:31.324Z,2.80
2022-10-03T07:24:14.656Z,2.67
2022-10-03T07:26:51.401Z,3.53
2022-10-03T07:29:35.191Z,2.97
2022-10-03T07:32:24.187Z,3.10
2022-10-03T07:35:58.139Z,3.20
2022-10-03T07:39:00.197Z,3.10
2022-10-03T07:41:31.744Z,3.30
2022-10-03T07:44:40.186Z,3.20
2022-10-03T07:47:38.651Z,3.10
2022-10-03T07:50:23.176Z,2.90
2022-10-03T07:53:14.351Z,3.07
2022-10-03T07:55:59.203Z,3.23
2022-10-03T07:58:43.082Z,3.20
2022-10-03T08:01:20.213Z,2.80
2022-10-03T08:04:00.174Z,3.23
2022-10-03T08:06:40.107Z,2.80
2022-10-03T08:09:13.557Z,3.13
2022-10-03T08:12:13.108Z,3.10
2022-10-03T08:14:57.831Z,2.93
2022-10-03T08:17:37.824Z,3.00
2022-10-03T08:20:05.899Z,2.87
2022-10-03T08:23:01.556Z,3.00
2022-10-03T08:25:32.095Z,2.93
2022-10-03T08:28:17.902Z,2.40
2022-10-03T08:30:45.536Z,3.10
2022-10-03T08:33:12.890Z,2.23
2022-10-03T08:35:57.732Z,3.00
2022-10-03T08:38:37.561Z,2.93
2022-10-03T08:41:36.794Z,2.97
2022-10-03T08:44:30.206Z,2.70
2022-10-03T08:47:08.086Z,3.33
2022-10-03T08:49:56.437Z,2.77
2022-10-03T08:52:35.190Z,3.20
2022-10-03T08:55:45.565Z,2.90
2022-10-03T08:58:28.869Z,3.30
2022-10-03T09:01:20.977Z,2.93
2022-10-03T09:04:00.942Z,2.93
2022-10-03T09:07:15.357Z,2.40
2022-10-03T09:10:16.415Z,3.23
2022-10-03T09:12:56.903Z,2.88
2022-10-03T09:15:36.916Z,2.55
2022-10-03T09:18:36.659Z,2.67
2022-10-03T09:21:26.252Z,2.85
2022-10-03T09:24:09.475Z,2.28
2022-10-03T09:27:06.246Z,3.00
2022-10-03T09:29:34.600Z,2.67
2022-10-03T09:32:17.977Z,2.30
2022-10-03T09:34:55.363Z,2.72
2022-10-03T09:37:47.839Z,2.70
2022-10-03T09:40:21.224Z,2.30
2022-10-03T09:43:15.118Z,2.55
2022-10-03T09:46:05.698Z,2.33
2022-10-03T09:48:48.400Z,3.08
2022-10-03T09:51:24.995Z,2.30
2022-10-03T09:54:25.363Z,2.60
2022-10-03T09:57:05.560Z,2.67
2022-10-03T09:59:33.486Z,2.17
2022-10-03T10:02:28.888Z,2.40
2022-10-03T10:04:56.010Z,2.13
2022-10-03T10:07:55.095Z,2.53
2022-10-03T10:10:37.943Z,2.58
2022-10-03T10:13:12.100Z,2.42
2022-10-03T10:15:55.161Z,2.38
2022-10-03T10:19:15.230Z,2.15
2022-10-03T10:21:47.754Z,2.30
2022-10-03T10:24:40.968Z,2.80
2022-10-03T10:27:27.358Z,2.45
2022-10-03T10:30:18.103Z,2.47
2022-10-03T10:33:12.119Z,2.50
2022-10-03T10:36:06.775Z,2.47
2022-10-03T10:38:37.559Z,2.47
2022-10-03T10:41:21.456Z,8.55
2022-10-03T10:44:10.514Z,2.30
2022-10-03T10:46:59.763Z,2.05
2022-10-03T10:49:27.008Z,2.30
2022-10-03T10:52:04.170Z,2.70
2022-10-03T10:54:55.537Z,1.98
2022-10-03T10:57:39.274Z,1.92
2022-10-03T11:00:23.514Z,3.13
2022-10-03T11:03:22.657Z,2.33
2022-10-03T11:05:46.952Z,2.30
2022-10-03T11:08:45.702Z,2.47
2022-10-03T11:11:29.112Z,2.45
2022-10-03T11:13:59.280Z,2.53
2022-10-03T11:16:55.330Z,2.53
2022-10-03T11:19:50.690Z,2.20
2022-10-03T11:23:04.837Z,2.55
2022-10-03T11:25:32.606Z,2.85
2022-10-03T11:28:29.136Z,2.28
2022-10-03T11:31:21.617Z,2.20
2022-10-03T11:34:11.505Z,2.17
2022-10-03T11:37:06.252Z,2.50
2022-10-03T11:40:07.736Z,2.80
2022-10-03T11:42:47.580Z,2.80
2022-10-03T11:45:29.609Z,2.70
2022-10-03T11:48:10.865Z,2.47
2022-10-03T11:50:52.583Z,2.00
2022-10-03T11:53:32.691Z,2.50
2022-10-03T11:55:54.116Z,2.28
2022-10-03T11:58:46.648Z,2.30
2022-10-03T12:01:24.177Z,2.67
2022-10-03T12:04:20.609Z,2.33
2022-10-03T12:07:14.258Z,2.22
2022-10-03T12:09:44.760Z,1.88
2022-10-03T12:12:27.882Z,2.15
2022-10-03T12:14:52.282Z,2.05
2022-10-03T12:17:33.410Z,2.25
2022-10-03T12:20:02.324Z,1.70
2022-10-03T12:22:29.527Z,2.00
2022-10-03T12:24:58.935Z,1.95
2022-10-03T12:27:35.878Z,2.10
2022-10-03T12:30:02.331Z,2.10
2022-10-03T12:32:38.392Z,1.90
2022-10-03T12:35:24.835Z,1.95
2022-10-03T12:38:33.989Z,1.98
2022-10-03T12:41:22.167Z,2.33
2022-10-03T12:44:16.412Z,2.33
2022-10-03T12:46:58.781Z,2.10
2022-10-03T12:49:44.081Z,2.30
2022-10-03T12:52:17.536Z,2.20
2022-10-03T12:55:18.441Z,2.15
2022-10-03T12:57:48.546Z,2.15
2022-10-03T13:00:33.704Z,2.10
2022-10-03T13:02:58.296Z,1.80
2022-10-03T13:05:55.168Z,2.00
2022-10-03T13:08:40.849Z,1.70
2022-10-03T13:11:10.421Z,2.00
2022-10-03T13:14:09.212Z,2.10
2022-10-03T13:16:45.466Z,1.65
2022-10-03T13:19:17.646Z,2.30
2022-10-03T13:21:48.174Z,2.17
2022-10-03T13:24:29.701Z,1.58
2022-10-03T13:26:56.936Z,1.85
2022-10-03T13:29:30.113Z,1.92
2022-10-03T13:31:57.354Z,1.83
2022-10-03T13:34:22.143Z,1.92
2022-10-03T13:37:10.016Z,1.73
2022-10-03T13:39:47.994Z,1.85
2022-10-03T13:42:37.188Z,1.98
2022-10-03T13:45:06.807Z,1.80
2022-10-03T13:47:43.023Z,1.80
2022-10-03T13:50:15.322Z,1.58
2022-10-03T13:52:53.589Z,2.00
2022-10-03T13:55:18.655Z,1.67
2022-10-03T13:58:05.551Z,1.75
2022-10-03T14:00:38.245Z,1.95
2022-10-03T14:03:23.053Z,1.65
2022-10-03T14:06:15.946Z,1.60
2022-10-03T14:09:01.996Z,1.50
2022-10-03T14:11:51.411Z,1.48
2022-10-03T14:14:34.936Z,1.63
2022-10-03T14:17:00.717Z,1.60
2022-10-03T14:19:36.819Z,1.83
2022-10-03T14:22:07.198Z,1.50
2022-10-03T14:24:47.327Z,1.33
2022-10-03T14:27:24.454Z,1.90
2022-10-03T14:30:13.776Z,1.60
2022-10-03T14:32:57.089Z,1.67
2022-10-03T14:35:40.338Z,1.60
2022-10-03T14:38:50.306Z,1.58
2022-10-03T14:41:20.833Z,1.38
2022-10-03T14:43:50.638Z,2.05
2022-10-03T14:46:15.335Z,1.88
2022-10-03T14:48:45.939Z,1.65
2022-10-03T14:51:24.733Z,1.70
2022-10-03T14:54:19.593Z,1.60
2022-10-03T14:56:46.991Z,1.60
2022-10-03T14:59:20.148Z,1.67
2022-10-03T15:01:49.451Z,1.75
2022-10-03T15:04:22.274Z,1.63
2022-10-03T15:06:46.500Z,1.85
2022-10-03T15:09:20.451Z,1.77
2022-10-03T15:11:50.009Z,1.98
2022-10-03T15:14:12.131Z,1.98
2022-10-03T15:16:38.985Z,1.30
2022-10-03T15:19:08.698Z,2.13
2022-10-03T15:21:31.295Z,2.03
2022-10-03T15:24:00.956Z,1.85
2022-10-03T15:26:25.932Z,1.83
2022-10-03T15:28:50.722Z,1.98
2022-10-03T15:31:22.207Z,1.67
2022-10-03T15:33:45.802Z,1.85
2022-10-03T15:36:23.455Z,2.10
2022-10-03T15:38:51.784Z,2.70
2022-10-03T15:41:21.536Z,3.13
2022-10-03T15:43:56.992Z,3.10
2022-10-03T15:46:29.558Z,4.27
2022-10-03T15:48:54.232Z,2.90
2022-10-03T15:51:24.021Z,2.10
2022-10-03T15:53:50.639Z,2.00
2022-10-03T15:56:28.122Z,2.70
2022-10-03T15:58:55.308Z,2.87
2022-10-03T16:01:24.281Z,2.27
2022-10-03T16:03:49.690Z,3.60
2022-10-03T16:06:13.852Z,4.40
2022-10-03T16:08:49.609Z,2.83
2022-10-03T16:11:47.669Z,4.77
2022-10-03T16:14:25.672Z,4.70
2022-10-03T16:16:54.831Z,3.70
2022-10-03T16:19:37.123Z,2.40
2022-10-03T16:22:18.771Z,2.33
2022-10-03T16:24:55.217Z,2.30
2022-10-03T16:27:24.706Z,2.60
2022-10-03T16:30:12.579Z,2.30
2022-10-03T16:32:39.404Z,2.50
2022-10-03T16:35:03.706Z,2.30
2022-10-03T16:37:29.921Z,2.00
2022-10-03T16:40:04.482Z,2.97
2022-10-03T16:42:36.314Z,2.90
2022-10-03T16:44:58.820Z,3.90
2022-10-03T16:47:31.547Z,2.17
2022-10-03T16:50:16.803Z,2.93
2022-10-03T16:52:40.453Z,2.83
2022-10-03T16:55:06.726Z,3.10
2022-10-03T16:57:40.477Z,2.70
2022-10-03T17:00:07.884Z,5.53
2022-10-03T17:02:30.723Z,7.40
2022-10-03T17:04:55.944Z,7.50
2022-10-03T17:07:23.773Z,7.70
2022-10-03T17:09:47.672Z,6.00
2022-10-03T17:12:18.054Z,4.47
2022-10-03T17:14:42.471Z,4.97
2022-10-03T17:17:14.767Z,4.03
2022-10-03T17:19:42.936Z,3.60
2022-10-03T17:22:30.115Z,3.10
2022-10-03T17:25:05.058Z,3.87
2022-10-03T17:27:36.736Z,3.70
2022-10-03T17:30:27.684Z,3.43
2022-10-03T17:32:59.525Z,3.93
2022-10-03T17:35:35.813Z,4.40
2022-10-03T17:38:48.344Z,3.80
2022-10-03T17:41:21.212Z,3.03
2022-10-03T17:43:56.158Z,3.20
2022-10-03T17:46:37.145Z,3.30
2022-10-03T17:49:19.932Z,2.90
2022-10-03T17:51:44.720Z,3.17
2022-10-03T17:54:15.266Z,3.00
2022-10-03T17:56:44.833Z,2.50
2022-10-03T17:59:15.334Z,2.60
2022-10-03T18:01:42.934Z,3.47
2022-10-03T18:04:13.344Z,8.50
2022-10-03T18:06:59.446Z,5.30
2022-10-03T18:09:26.319Z,10.90
2022-10-03T18:11:50.158Z,14.93
2022-10-03T18:14:42.081Z,9.87
2022-10-03T18:17:25.175Z,8.80
2022-10-03T18:19:57.006Z,8.37
2022-10-03T18:22:27.164Z,7.43
2022-10-03T18:26:02.151Z,7.23
2022-10-03T18:28:33.161Z,7.83
2022-10-03T18:31:02.720Z,6.67
2022-10-03T18:33:32.606Z,6.50
2022-10-03T18:35:54.619Z,9.03
2022-10-03T18:38:31.116Z,7.60
2022-10-03T18:40:56.820Z,7.93
2022-10-03T18:43:32.252Z,7.50
2022-10-03T18:46:04.150Z,6.43
2022-10-03T18:48:44.978Z,3.50
2022-10-03T18:51:21.521Z,4.93
2022-10-03T18:53:51.719Z,5.93
2022-10-03T18:56:21.512Z,6.63
2022-10-03T18:58:56.745Z,5.90
2022-10-03T19:01:25.767Z,5.40
2022-10-03T19:03:56.028Z,4.97
2022-10-03T19:06:26.601Z,6.03
2022-10-03T19:08:56.062Z,5.80
2022-10-03T19:11:23.408Z,4.60
2022-10-03T19:14:12.531Z,4.80
2022-10-03T19:16:40.836Z,5.70
2022-10-03T19:19:11.132Z,4.80
2022-10-03T19:21:38.006Z,5.53
2022-10-03T19:24:02.811Z,6.17
2022-10-03T19:26:35.549Z,4.13
2022-10-03T19:29:04.332Z,5.60
2022-10-03T19:31:35.852Z,5.13
2022-10-03T19:34:05.483Z,4.83
2022-10-03T19:36:31.194Z,4.77
2022-10-03T19:38:54.747Z,4.00
2022-10-03T19:41:44.441Z,4.80
2022-10-03T19:44:15.543Z,5.17
2022-10-03T19:46:57.990Z,4.63
2022-10-03T19:49:22.397Z,5.50
2022-10-03T19:51:44.065Z,3.40
2022-10-03T19:54:13.073Z,3.50
2022-10-03T19:56:36.198Z,3.77
2022-10-03T19:59:20.120Z,4.13
2022-10-03T20:01:44.063Z,4.60
2022-10-03T20:04:06.042Z,5.20
2022-10-03T20:06:37.183Z,5.77
2022-10-03T20:09:07.514Z,10.30
2022-10-03T20:11:55.289Z,7.10
2022-10-03T20:14:23.612Z,11.60
2022-10-03T20:16:48.683Z,9.50
2022-10-03T20:19:14.896Z,7.47
2022-10-03T20:21:36.776Z,6.90
2022-10-03T20:23:58.814Z,6.23
2022-10-03T20:26:35.981Z,6.97
2022-10-03T20:28:57.516Z,6.57
2022-10-03T20:31:25.574Z,4.20
2022-10-03T20:33:47.465Z,5.57
2022-10-03T20:36:23.036Z,4.43
2022-10-03T20:39:04.869Z,3.30
2022-10-03T20:41:41.817Z,3.77
2022-10-03T20:44:27.978Z,4.63
2022-10-03T20:46:53.285Z,3.80
2022-10-03T20:49:28.049Z,6.07
2022-10-03T20:51:52.539Z,3.20
2022-10-03T20:54:18.059Z,2.80
2022-10-03T20:56:54.573Z,3.27
2022-10-03T20:59:17.405Z,3.20
2022-10-03T21:01:41.414Z,3.73
2022-10-03T21:04:43.956Z,5.53
2022-10-03T21:07:11.253Z,4.27
2022-10-03T21:09:47.752Z,3.40
2022-10-03T21:12:21.778Z,2.77
2022-10-03T21:14:46.363Z,3.60
2022-10-03T21:17:16.241Z,3.80
2022-10-03T21:20:33.348Z,4.10
2022-10-03T21:23:00.407Z,6.00
2022-10-03T21:25:37.784Z,8.10
2022-10-03T21:27:59.383Z,10.37
2022-10-03T21:30:32.342Z,9.00
2022-10-03T21:33:00.906Z,9.07
2022-10-03T21:35:30.071Z,9.23
2022-10-03T21:37:57.165Z,5.87
2022-10-03T21:40:48.977Z,7.60
2022-10-03T21:43:25.652Z,10.87
2022-10-03T21:45:49.898Z,8.50
2022-10-03T21:48:35.891Z,13.43
2022-10-03T21:51:00.605Z,9.93
2022-10-03T21:53:34.173Z,6.77
2022-10-03T21:56:14.240Z,9.30
2022-10-03T21:58:41.800Z,9.27
2022-10-03T22:01:13.423Z,4.63
2022-10-03T22:03:47.829Z,7.03
2022-10-03T22:06:21.149Z,8.20
2022-10-03T22:08:48.279Z,7.00
2022-10-03T22:11:23.830Z,7.10
2022-10-03T22:13:59.076Z,7.43
2022-10-03T22:16:52.089Z,6.60
2022-10-03T22:19:38.871Z,3.13
2022-10-03T22:22:00.268Z,4.03
2022-10-03T22:24:49.583Z,4.60
2022-10-03T22:27:37.803Z,4.67
2022-10-03T22:30:10.373Z,6.77
2022-10-03T22:32:39.441Z,4.63
2022-10-03T22:35:37.695Z,5.10
2022-10-03T22:38:00.111Z,5.97
2022-10-03T22:40:22.897Z,5.13
2022-10-03T22:42:50.159Z,6.40
2022-10-03T22:45:16.352Z,6.30
2022-10-03T22:47:39.028Z,7.37
2022-10-03T22:50:06.080Z,7.67
2022-10-03T22:52:40.584Z,4.60
2022-10-03T22:55:04.473Z,5.20
2022-10-03T22:57:26.803Z,5.50
2022-10-03T22:59:58.913Z,5.50
2022-10-03T23:02:27.753Z,5.83
2022-10-03T23:04:57.941Z,3.77
2022-10-03T23:07:31.784Z,4.97
2022-10-03T23:10:02.206Z,6.20
2022-10-03T23:12:28.028Z,5.93
2022-10-03T23:14:52.894Z,5.47
2022-10-03T23:17:31.991Z,4.33
2022-10-03T23:20:08.500Z,3.53
2022-10-03T23:22:34.383Z,2.93
2022-10-03T23:25:03.077Z,3.73
2022-10-03T23:27:50.619Z,3.57
2022-10-03T23:30:12.049Z,3.20
2022-10-03T23:32:48.547Z,3.70
2022-10-03T23:35:40.179Z,3.60
2022-10-03T23:38:02.409Z,2.83
2022-10-03T23:40:40.016Z,3.60
2022-10-03T23:43:18.619Z,3.17
2022-10-03T23:45:40.190Z,3.67
2022-10-03T23:48:07.374Z,3.93
2022-10-03T23:50:44.228Z,4.07
2022-10-03T23:53:07.781Z,3.53
2022-10-03T23:55:32.999Z,3.30
2022-10-03T23:57:55.092Z,4.07
